Time;durP1;ratioP1;P1;durP2;ratioP2;P2;SDS_P1;SDS_P2;PMS_P1;PMS_P2;Temp;Humidity;BMP_temperature;BMP_pressure;BME280_temperature;BME280_humidity;BME280_pressure;Samples;Min_cycle;Max_cycle;Signal;HPM_P1;HPM_P2
2023/08/07 00:01:32;;;;;;;4.30;3.90;;;;;;;14.56;100.00;97688.02;109551;1253;58961;-81
2023/08/07 00:03:59;;;;;;;4.60;4.20;;;;;;;14.56;100.00;97684.31;109333;1251;64868;-81
2023/08/07 00:06:26;;;;;;;4.30;4.00;;;;;;;14.55;100.00;97683.72;109543;1253;60042;-81
2023/08/07 00:08:52;;;;;;;4.10;3.80;;;;;;;14.55;100.00;97685.13;109498;1255;64043;-81
2023/08/07 00:11:19;;;;;;;4.80;3.90;;;;;;;14.55;100.00;97685.09;109221;1254;59032;-81
2023/08/07 00:13:45;;;;;;;3.80;3.50;;;;;;;14.56;100.00;97678.23;109535;1254;58991;-82
2023/08/07 00:16:12;;;;;;;4.80;4.00;;;;;;;14.56;100.00;97671.65;109527;1254;59695;-82
2023/08/07 00:18:38;;;;;;;4.50;4.10;;;;;;;14.54;100.00;97660.69;109569;1254;59005;-82
2023/08/07 00:21:05;;;;;;;4.20;3.90;;;;;;;14.56;100.00;97658.36;109351;1253;73590;-81
2023/08/07 00:23:32;;;;;;;6.30;4.20;;;;;;;14.56;100.00;97656.48;109535;1253;59017;-82
2023/08/07 00:25:58;;;;;;;4.20;3.80;;;;;;;14.54;100.00;97653.56;109572;1252;58917;-81
2023/08/07 00:28:25;;;;;;;4.00;3.70;;;;;;;14.53;100.00;97656.89;109378;1254;65840;-81
2023/08/07 00:30:51;;;;;;;4.40;4.00;;;;;;;14.50;100.00;97654.27;109496;1252;60138;-81
2023/08/07 00:33:18;;;;;;;4.00;3.60;;;;;;;14.49;100.00;97650.44;109507;1253;63879;-81
2023/08/07 00:35:45;;;;;;;4.30;4.00;;;;;;;14.47;100.00;97649.29;109232;1253;59035;-81
2023/08/07 00:38:11;;;;;;;4.20;3.90;;;;;;;14.43;100.00;97654.27;109477;1252;58984;-81
2023/08/07 00:40:39;;;;;;;4.90;4.00;;;;;;;14.39;100.00;97650.63;109531;1254;64521;-81
2023/08/07 00:43:06;;;;;;;6.10;4.00;;;;;;;14.36;100.00;97650.45;109275;1252;311625;-81
2023/08/07 00:45:44;;;;;;;5.30;4.20;;;;;;;14.33;100.00;97647.88;109520;1253;73873;-81
2023/08/07 00:48:12;;;;;;;4.50;4.00;;;;;;;14.34;100.00;97646.48;109578;1253;59052;-81
2023/08/07 00:50:41;;;;;;;4.30;4.00;;;;;;;14.33;100.00;97647.89;109550;1253;59121;-82
2023/08/07 00:53:09;;;;;;;4.80;4.40;;;;;;;14.32;100.00;97650.45;109501;1253;66813;-82
2023/08/07 00:55:36;;;;;;;4.20;3.80;;;;;;;14.31;100.00;97648.44;109501;1252;59094;-82
2023/08/07 00:58:02;;;;;;;4.10;3.70;;;;;;;14.32;100.00;97646.58;109527;1253;63888;-82
2023/08/07 01:00:30;;;;;;;5.10;4.70;;;;;;;14.32;100.00;97644.36;109379;1253;59057;-82
2023/08/07 01:02:56;;;;;;;4.30;3.90;;;;;;;14.33;100.00;97647.92;109619;1254;58893;-82
2023/08/07 01:05:26;;;;;;;4.60;4.20;;;;;;;14.33;100.00;97649.86;109379;1252;75061;-83
2023/08/07 01:07:55;;;;;;;4.90;4.40;;;;;;;14.33;100.00;97645.04;109428;1254;59854;-82
2023/08/07 01:10:36;;;;;;;3.80;3.60;;;;;;;14.32;100.00;97646.07;109513;1252;62840;-82
2023/08/07 01:13:14;;;;;;;5.60;4.30;;;;;;;14.30;100.00;97648.94;109543;1254;58989;-82
2023/08/07 01:15:40;;;;;;;4.60;4.10;;;;;;;14.30;100.00;97648.40;109619;1253;58974;-82
2023/08/07 01:18:07;;;;;;;4.50;4.10;;;;;;;14.31;100.00;97651.89;109388;1253;66029;-82
2023/08/07 01:20:34;;;;;;;4.90;3.90;;;;;;;14.30;100.00;97652.48;109616;1251;59053;-81
2023/08/07 01:23:01;;;;;;;4.50;4.10;;;;;;;14.29;100.00;97651.28;109411;1254;62836;-82
2023/08/07 01:25:29;;;;;;;4.30;4.00;;;;;;;14.31;100.00;97654.17;109348;1254;59245;-81
2023/08/07 01:28:24;;;;;;;4.60;4.20;;;;;;;14.31;100.00;97652.33;109570;1254;58954;-82
2023/08/07 01:30:58;;;;;;;4.20;3.90;;;;;;;14.33;100.00;97649.49;109569;1252;67200;-82
2023/08/07 01:33:32;;;;;;;4.50;4.20;;;;;;;14.33;100.00;97647.89;109546;1253;61297;-81
2023/08/07 01:36:03;;;;;;;4.60;4.30;;;;;;;14.33;100.00;97651.30;109544;1252;65221;-79
2023/08/07 01:38:30;;;;;;;4.10;3.80;;;;;;;14.32;100.00;97650.13;109539;1253;59820;-82
2023/08/07 01:40:58;;;;;;;4.00;3.70;;;;;;;14.33;100.00;97656.86;109572;1253;59029;-82
2023/08/07 01:43:24;;;;;;;4.40;4.00;;;;;;;14.32;100.00;97657.45;109586;1253;66067;-82
2023/08/07 01:45:51;;;;;;;4.80;4.40;;;;;;;14.31;100.00;97656.98;109573;1253;59144;-80
2023/08/07 01:48:17;;;;;;;4.30;4.00;;;;;;;14.33;100.00;97658.46;109532;1254;63752;-81
2023/08/07 01:50:44;;;;;;;4.00;3.80;;;;;;;14.34;100.00;97656.88;109532;1251;58971;-81
2023/08/07 01:53:11;;;;;;;4.00;3.70;;;;;;;14.36;100.00;97656.34;109577;1253;58938;-82
2023/08/07 01:55:37;;;;;;;3.90;3.60;;;;;;;14.36;100.00;97651.45;109558;1254;66671;-82
2023/08/07 01:58:04;;;;;;;3.20;3.00;;;;;;;14.36;100.00;97654.34;109569;1254;61320;-81
2023/08/07 02:00:34;;;;;;;3.80;3.50;;;;;;;14.37;100.00;97653.36;109547;1252;64162;-81
2023/08/07 02:03:00;;;;;;;4.90;3.30;;;;;;;14.38;100.00;97654.89;109476;1254;58934;-82
2023/08/07 02:05:27;;;;;;;3.40;3.20;;;;;;;14.39;100.00;97655.66;109363;1253;58980;-81
2023/08/07 02:07:56;;;;;;;3.50;3.20;;;;;;;14.40;100.00;97654.80;109546;1252;67259;-81
2023/08/07 02:10:23;;;;;;;4.70;3.50;;;;;;;14.43;100.00;97658.73;109553;1253;60119;-82
2023/08/07 02:12:49;;;;;;;3.70;3.40;;;;;;;14.44;100.00;97662.76;109569;1254;62593;-82
2023/08/07 02:15:16;;;;;;;3.60;3.40;;;;;;;14.46;100.00;97666.34;109542;1253;58974;-81
2023/08/07 02:17:43;;;;;;;3.90;3.60;;;;;;;14.47;100.00;97669.73;109532;1253;60081;-82
2023/08/07 02:20:10;;;;;;;3.50;3.30;;;;;;;14.49;100.00;97675.47;109587;1253;65921;-82
2023/08/07 02:22:36;;;;;;;3.50;3.20;;;;;;;14.51;100.00;97673.14;109525;1253;60058;-81
2023/08/07 02:25:03;;;;;;;4.40;3.20;;;;;;;14.53;100.00;97669.72;109502;1252;65465;-82
2023/08/07 02:27:30;;;;;;;3.90;3.20;;;;;;;14.56;100.00;97666.28;109514;1253;58936;-81
2023/08/07 02:29:57;;;;;;;3.50;3.10;;;;;;;14.55;100.00;97663.46;109504;1254;58863;-82
2023/08/07 02:32:24;;;;;;;4.00;3.50;;;;;;;14.56;100.00;97665.91;109550;1253;67145;-82
2023/08/07 02:34:50;;;;;;;4.00;3.60;;;;;;;14.59;100.00;97667.75;109515;1252;60119;-82
2023/08/07 02:37:17;;;;;;;3.20;3.00;;;;;;;14.58;100.00;97669.95;109509;1252;64094;-81
2023/08/07 02:39:43;;;;;;;3.50;3.20;;;;;;;14.56;100.00;97674.80;109473;1254;58980;-82
2023/08/07 02:42:10;;;;;;;3.70;3.50;;;;;;;14.58;100.00;97676.55;109400;1253;59027;-81
2023/08/07 02:44:37;;;;;;;3.50;3.20;;;;;;;14.60;100.00;97677.77;109558;1253;64542;-82
2023/08/07 02:47:04;;;;;;;3.40;3.10;;;;;;;14.61;100.00;97675.60;109581;1254;60803;-82
2023/08/07 02:49:30;;;;;;;4.30;3.30;;;;;;;14.61;100.00;97675.38;109592;1253;64406;-82
2023/08/07 02:51:57;;;;;;;4.90;3.50;;;;;;;14.61;100.00;97675.34;109510;1253;59062;-82
2023/08/07 02:54:24;;;;;;;4.00;3.50;;;;;;;14.61;100.00;97677.86;109557;1253;58981;-82
2023/08/07 02:56:50;;;;;;;4.20;3.40;;;;;;;14.61;100.00;97680.16;109598;1252;64854;-82
2023/08/07 02:59:17;;;;;;;4.80;3.50;;;;;;;14.61;100.00;97679.27;109282;1253;60197;-81
2023/08/07 03:01:44;;;;;;;6.30;4.40;;;;;;;14.61;100.00;97676.58;109524;1253;65259;-81
2023/08/07 03:04:11;;;;;;;3.50;3.10;;;;;;;14.62;100.00;97674.41;109549;1253;59087;-82
2023/08/07 03:06:37;;;;;;;3.50;3.20;;;;;;;14.62;100.00;97677.19;109565;1252;58952;-81
2023/08/07 03:09:04;;;;;;;3.30;3.00;;;;;;;14.64;100.00;97679.86;109552;1253;64516;-81
2023/08/07 03:11:30;;;;;;;3.10;2.90;;;;;;;14.64;100.00;97682.00;109502;1253;59023;-82
2023/08/07 03:13:57;;;;;;;3.80;3.00;;;;;;;14.64;100.00;97687.55;109569;1251;72712;-82
2023/08/07 03:16:24;;;;;;;3.60;3.30;;;;;;;14.65;100.00;97690.13;109542;1253;59045;-81
2023/08/07 03:18:51;;;;;;;3.10;2.90;;;;;;;14.65;100.00;97688.73;109523;1253;59814;-82
2023/08/07 03:21:18;;;;;;;3.00;2.80;;;;;;;14.65;100.00;97690.30;109488;1253;66016;-80
2023/08/07 03:23:44;;;;;;;2.90;2.70;;;;;;;14.65;100.00;97691.91;109495;1252;59872;-81
2023/08/07 03:26:12;;;;;;;3.90;3.10;;;;;;;14.65;100.00;97692.52;109373;1252;63776;-82
2023/08/07 03:28:39;;;;;;;3.10;2.90;;;;;;;14.65;100.00;97690.29;109181;1253;59109;-81
2023/08/07 03:31:06;;;;;;;2.90;2.50;;;;;;;14.65;100.00;97697.06;109546;1252;59007;-82
2023/08/07 03:33:32;;;;;;;2.70;2.50;;;;;;;14.65;100.00;97697.85;109541;1253;67175;-81
2023/08/07 03:35:59;;;;;;;2.70;2.50;;;;;;;14.65;100.00;97700.83;109538;1252;60104;-80
2023/08/07 03:38:26;;;;;;;2.90;2.10;;;;;;;14.66;100.00;97702.20;109451;1253;65381;-81
2023/08/07 03:40:52;;;;;;;2.40;2.20;;;;;;;14.67;100.00;97703.35;109551;1253;59134;-81
2023/08/07 03:43:19;;;;;;;2.30;2.10;;;;;;;14.68;100.00;97703.73;109569;1251;58938;-81
2023/08/07 03:45:45;;;;;;;2.80;2.10;;;;;;;14.72;100.00;97707.15;109468;1253;67015;-81
2023/08/07 03:48:12;;;;;;;2.30;2.20;;;;;;;14.73;100.00;97706.13;109533;1253;60111;-82
2023/08/07 03:50:38;;;;;;;2.20;2.10;;;;;;;14.74;100.00;97707.51;109553;1253;63777;-79
2023/08/07 03:53:07;;;;;;;2.60;2.00;;;;;;;14.74;100.00;97713.41;109579;1253;59046;-81
2023/08/07 03:55:34;;;;;;;1.70;1.60;;;;;;;14.74;100.00;97714.45;109411;1252;58933;-81
2023/08/07 03:58:02;;;;;;;2.10;1.60;;;;;;;14.75;100.00;97720.88;109487;1253;75526;-81
2023/08/07 04:00:29;;;;;;;1.60;1.40;;;;;;;14.76;100.00;97723.13;109522;1252;61364;-81
2023/08/07 04:02:56;;;;;;;1.50;1.40;;;;;;;14.74;100.00;97723.19;109544;1253;65014;-82
2023/08/07 04:05:22;;;;;;;1.40;1.40;;;;;;;14.77;100.00;97727.87;109531;1252;58956;-81
2023/08/07 04:07:49;;;;;;;2.00;1.60;;;;;;;14.79;100.00;97727.98;109462;1253;59018;-81
2023/08/07 04:10:15;;;;;;;1.50;1.40;;;;;;;14.80;100.00;97728.23;109528;1253;66852;-82
2023/08/07 04:12:42;;;;;;;1.40;1.30;;;;;;;14.81;100.00;97726.18;109406;1254;59131;-81
2023/08/07 04:15:09;;;;;;;1.30;1.20;;;;;;;14.81;100.00;97728.38;109320;1255;63901;-81
2023/08/07 04:17:36;;;;;;;1.20;1.20;;;;;;;14.83;100.00;97734.73;109492;1252;58967;-81
2023/08/07 04:20:03;;;;;;;1.10;1.00;;;;;;;14.86;100.00;97732.40;109554;1252;59366;-82
2023/08/07 04:22:30;;;;;;;0.90;0.90;;;;;;;14.88;100.00;97730.23;109360;1253;65808;-81
2023/08/07 04:24:56;;;;;;;1.30;1.10;;;;;;;14.89;100.00;97728.72;109540;1253;59875;-82
2023/08/07 04:27:23;;;;;;;4.00;1.10;;;;;;;14.95;100.00;97727.58;109538;1252;63880;-82
2023/08/07 04:29:49;;;;;;;1.90;0.90;;;;;;;14.98;100.00;97726.02;109525;1253;59085;-82
2023/08/07 04:32:16;;;;;;;1.00;0.90;;;;;;;14.97;100.00;97725.61;109508;1252;59283;-82
2023/08/07 04:34:43;;;;;;;3.00;0.90;;;;;;;14.96;100.00;97725.30;109544;1251;65698;-81
2023/08/07 04:37:09;;;;;;;1.20;0.90;;;;;;;14.99;100.00;97724.85;109513;1253;60198;-82
2023/08/07 04:39:36;;;;;;;1.10;0.90;;;;;;;15.04;100.00;97726.10;109402;1253;63762;-81
2023/08/07 04:42:03;;;;;;;0.60;0.60;;;;;;;15.07;100.00;97725.23;109652;1252;58954;-82
2023/08/07 04:44:30;;;;;;;1.50;0.90;;;;;;;15.11;100.00;97724.11;109625;1253;58999;-81
2023/08/07 04:46:56;;;;;;;1.10;0.50;;;;;;;15.14;100.00;97725.17;109528;1252;67038;-82
2023/08/07 04:49:23;;;;;;;0.70;0.70;;;;;;;15.21;100.00;97724.65;109490;1253;58936;-83
2023/08/07 04:51:49;;;;;;;1.20;0.50;;;;;;;15.25;100.00;97723.93;109545;1252;62442;-82
2023/08/07 04:54:16;;;;;;;0.40;0.40;;;;;;;15.28;100.00;97723.73;109539;1252;59011;-81
2023/08/07 04:56:44;;;;;;;0.40;0.40;;;;;;;15.30;100.00;97726.52;109650;1252;58822;-82
2023/08/07 04:59:11;;;;;;;1.30;0.30;;;;;;;15.33;100.00;97729.75;109649;1253;64477;-82
2023/08/07 05:01:38;;;;;;;2.50;0.40;;;;;;;15.34;100.00;97729.29;109616;1251;59231;-83
2023/08/07 05:04:05;;;;;;;1.60;0.50;;;;;;;15.36;100.00;97733.59;109585;1252;62939;-83
2023/08/07 05:06:31;;;;;;;0.70;0.40;;;;;;;15.35;100.00;97739.83;109552;1251;58967;-82
2023/08/07 05:08:58;;;;;;;2.10;0.40;;;;;;;15.34;100.00;97734.33;109523;1252;58957;-82
2023/08/07 05:11:25;;;;;;;0.90;0.40;;;;;;;15.32;100.00;97736.53;109519;1253;64406;-83
2023/08/07 05:13:51;;;;;;;0.40;0.20;;;;;;;15.38;100.00;97740.77;109577;1252;61142;-82
2023/08/07 05:16:18;;;;;;;0.40;0.30;;;;;;;15.46;100.00;97741.16;109510;1251;64122;-82
2023/08/07 05:18:45;;;;;;;3.00;0.30;;;;;;;15.52;100.00;97740.27;109566;1252;58972;-82
2023/08/07 05:21:12;;;;;;;1.00;0.30;;;;;;;15.59;100.00;97738.13;109576;1252;58983;-73
2023/08/07 05:23:38;;;;;;;0.20;0.20;;;;;;;15.66;100.00;97740.04;109466;1251;64725;-74
2023/08/07 05:26:05;;;;;;;1.00;0.20;;;;;;;15.70;100.00;97740.42;109305;1254;60213;-79
2023/08/07 05:28:31;;;;;;;3.50;0.30;;;;;;;15.74;100.00;97739.35;109427;1252;64098;-76
2023/08/07 05:30:58;;;;;;;0.20;0.20;;;;;;;15.84;100.00;97743.94;109537;1251;58987;-73
2023/08/07 05:33:25;;;;;;;0.20;0.20;;;;;;;15.91;100.00;97743.33;109584;1251;59080;-77
2023/08/07 05:35:52;;;;;;;0.30;0.20;;;;;;;16.00;100.00;97746.98;109634;1252;65854;-80
2023/08/07 05:38:19;;;;;;;0.10;0.10;;;;;;;16.08;100.00;97751.30;109535;1252;59718;-80
2023/08/07 05:40:45;;;;;;;1.80;0.20;;;;;;;16.12;100.00;97752.14;109597;1252;62513;-81
2023/08/07 05:43:12;;;;;;;0.80;0.20;;;;;;;16.16;100.00;97751.30;109560;1252;59056;-80
2023/08/07 05:45:39;;;;;;;0.90;0.30;;;;;;;16.21;100.00;97752.38;109684;1252;58996;-79
2023/08/07 05:48:06;;;;;;;0.60;0.20;;;;;;;16.31;100.00;97753.06;109892;1252;66826;-80
2023/08/07 05:50:33;;;;;;;0.40;0.10;;;;;;;16.42;100.00;97755.95;109872;1253;58928;-80
2023/08/07 05:52:59;;;;;;;1.70;0.20;;;;;;;16.49;100.00;97757.86;109780;1251;62531;-80
2023/08/07 05:55:26;;;;;;;0.30;0.10;;;;;;;16.51;100.00;97763.40;109774;1252;58291;-79
2023/08/07 05:57:52;;;;;;;0.70;0.20;;;;;;;16.51;100.00;97762.19;109846;1252;59510;-80
2023/08/07 06:00:19;;;;;;;0.10;0.10;;;;;;;16.52;100.00;97764.61;109770;1253;59066;-80
2023/08/07 06:02:46;;;;;;;1.40;0.30;;;;;;;16.50;100.00;97763.67;109513;1252;61117;-82
2023/08/07 06:05:14;;;;;;;0.30;0.20;;;;;;;16.48;100.00;97765.11;109573;1252;64203;-82
2023/08/07 06:07:40;;;;;;;1.10;0.10;;;;;;;16.51;100.00;97766.13;109559;1251;58981;-81
2023/08/07 06:10:07;;;;;;;0.70;0.20;;;;;;;16.52;100.00;97766.70;109683;1251;59029;-79
2023/08/07 06:12:34;;;;;;;0.40;0.40;;;;;;;16.61;100.00;97768.60;109579;1251;65762;-82
2023/08/07 06:15:00;;;;;;;0.30;0.30;;;;;;;16.62;100.00;97776.49;109636;1251;60118;-82
2023/08/07 06:17:27;;;;;;;0.40;0.20;;;;;;;16.57;100.00;97781.62;109589;1251;64117;-80
2023/08/07 06:19:54;;;;;;;0.20;0.20;;;;;;;16.55;100.00;97783.64;109593;1251;58937;-80
2023/08/07 06:22:20;;;;;;;0.80;0.10;;;;;;;16.53;100.00;97785.02;109667;1251;59218;-82
2023/08/07 06:24:47;;;;;;;0.60;0.20;;;;;;;16.53;100.00;97785.74;109613;1251;64632;-81
2023/08/07 06:27:14;;;;;;;0.20;0.20;;;;;;;16.53;100.00;97795.14;109630;1251;67459;-79
2023/08/07 06:29:40;;;;;;;0.60;0.20;;;;;;;16.49;100.00;97794.47;109612;1251;64088;-84
2023/08/07 06:32:07;;;;;;;2.80;0.30;;;;;;;16.49;100.00;97792.35;109580;1251;59049;-80
2023/08/07 06:34:35;;;;;;;2.30;0.30;;;;;;;16.47;100.00;97793.02;109650;1251;58862;-80
2023/08/07 06:37:01;;;;;;;0.30;0.30;;;;;;;16.52;100.00;97794.56;109654;1251;65729;-80
2023/08/07 06:39:29;;;;;;;0.20;0.10;;;;;;;16.50;100.00;97797.23;109678;1250;59037;-80
2023/08/07 06:41:56;;;;;;;0.20;0.20;;;;;;;16.48;100.00;97798.94;109608;1251;63724;-80
2023/08/07 06:44:22;;;;;;;0.30;0.30;;;;;;;16.44;100.00;97795.21;109657;1251;59030;-80
2023/08/07 06:46:49;;;;;;;2.70;0.20;;;;;;;16.42;100.00;97796.15;109458;1255;58956;-79
2023/08/07 06:49:16;;;;;;;0.20;0.20;;;;;;;16.40;100.00;97799.35;109599;1250;73600;-80
2023/08/07 06:51:42;;;;;;;1.40;0.30;;;;;;;16.40;100.00;97803.33;109697;1250;61330;-80
2023/08/07 06:54:09;;;;;;;0.40;0.20;;;;;;;16.42;100.00;97805.57;109607;1251;62706;-80
2023/08/07 06:56:37;;;;;;;0.20;0.20;;;;;;;16.48;100.00;97807.55;109645;1250;59084;-80
2023/08/07 06:59:04;;;;;;;0.30;0.30;;;;;;;16.55;100.00;97807.73;109659;1251;58977;-80
2023/08/07 07:01:32;;;;;;;0.30;0.30;;;;;;;16.65;100.00;97805.75;109656;1250;66109;-80
2023/08/07 07:03:58;;;;;;;2.30;0.10;;;;;;;16.80;100.00;97805.17;109677;1251;60201;-80
2023/08/07 07:06:27;;;;;;;0.90;0.20;;;;;;;16.93;100.00;97807.73;109676;1251;73839;-80
2023/08/07 07:08:54;;;;;;;0.30;0.10;;;;;;;16.98;100.00;97808.77;109602;1251;59007;-80
2023/08/07 07:11:24;;;;;;;0.30;0.30;;;;;;;17.07;100.00;97811.13;109684;1251;59114;-80
2023/08/07 07:13:51;;;;;;;0.20;0.20;;;;;;;17.12;100.00;97816.73;109618;1250;65729;-80
2023/08/07 07:16:21;;;;;;;0.30;0.20;;;;;;;17.10;100.00;97815.84;109509;1253;68047;-80
2023/08/07 07:18:49;;;;;;;0.50;0.30;;;;;;;17.09;100.00;97821.70;109373;1253;63479;-80
2023/08/07 07:21:17;;;;;;;0.60;0.20;;;;;;;17.09;100.00;97819.91;109146;1253;59176;-80
2023/08/07 07:23:43;;;;;;;0.20;0.10;;;;;;;17.09;100.00;97818.48;109434;1252;58885;-80
2023/08/07 07:26:10;;;;;;;0.80;0.30;;;;;;;17.08;100.00;97823.21;109452;1253;66026;-79
2023/08/07 07:28:38;;;;;;;6.20;0.40;;;;;;;17.09;100.00;97820.91;109491;1253;69001;-79
2023/08/07 07:31:05;;;;;;;1.10;0.10;;;;;;;17.13;100.00;97827.94;109471;1253;64112;-80
2023/08/07 07:33:31;;;;;;;0.60;0.50;;;;;;;17.16;100.00;97826.84;109481;1252;58943;-80
2023/08/07 07:35:58;;;;;;;0.30;0.30;;;;;;;17.16;100.00;97829.52;109477;1253;58967;-80
2023/08/07 07:38:26;;;;;;;1.30;0.30;;;;;;;17.14;100.00;97836.01;109554;1253;66120;-80
2023/08/07 07:40:56;;;;;;;1.50;0.40;;;;;;;17.07;100.00;97836.84;109555;1252;60118;-80
2023/08/07 07:43:23;;;;;;;2.50;1.00;;;;;;;16.96;100.00;97841.61;109229;1252;62552;-79
2023/08/07 07:45:50;;;;;;;0.70;0.50;;;;;;;16.88;100.00;97849.39;109467;1252;59121;-80
2023/08/07 07:48:16;;;;;;;1.50;0.30;;;;;;;16.85;100.00;97847.34;109597;1251;59396;-80
2023/08/07 07:50:43;;;;;;;3.10;0.40;;;;;;;16.81;100.00;97848.56;109649;1251;64661;-79
2023/08/07 07:53:10;;;;;;;1.00;0.40;;;;;;;16.76;100.00;97848.15;109634;1250;60108;-80
2023/08/07 07:55:37;;;;;;;1.90;0.40;;;;;;;16.72;100.00;97849.13;109651;1251;65160;-80
2023/08/07 07:58:04;;;;;;;0.50;0.30;;;;;;;16.74;100.00;97851.84;109574;1251;58953;-80
2023/08/07 08:00:31;;;;;;;0.70;0.50;;;;;;;16.73;100.00;97855.10;109650;1251;58884;-80
2023/08/07 08:02:57;;;;;;;1.20;0.30;;;;;;;16.73;100.00;97856.71;109611;1250;66007;-80
2023/08/07 08:05:24;;;;;;;1.70;0.20;;;;;;;16.75;100.00;97859.56;109419;1251;59038;-80
2023/08/07 08:07:51;;;;;;;0.60;0.20;;;;;;;16.80;100.00;97857.91;109632;1251;62816;-80
2023/08/07 08:10:17;;;;;;;0.40;0.20;;;;;;;16.87;100.00;97864.54;109582;1251;58907;-80
2023/08/07 08:12:44;;;;;;;0.30;0.30;;;;;;;16.93;100.00;97867.83;109683;1251;58890;-80
2023/08/07 08:15:11;;;;;;;0.90;0.20;;;;;;;16.99;100.00;97869.80;109587;1250;65736;-80
2023/08/07 08:17:37;;;;;;;0.30;0.30;;;;;;;17.00;100.00;97874.06;109649;1251;59978;-80
2023/08/07 08:20:05;;;;;;;0.80;0.20;;;;;;;16.98;100.00;97874.64;109646;1251;64094;-80
2023/08/07 08:22:33;;;;;;;0.60;0.10;;;;;;;16.99;100.00;97879.39;109659;1251;58988;-80
2023/08/07 08:24:59;;;;;;;0.20;0.20;;;;;;;17.01;100.00;97879.36;109578;1251;58908;-79
2023/08/07 08:27:26;;;;;;;1.10;0.20;;;;;;;17.04;100.00;97881.66;109513;1251;66202;-80
2023/08/07 08:29:52;;;;;;;0.40;0.20;;;;;;;17.03;100.00;97884.95;109631;1251;60701;-80
2023/08/07 08:32:20;;;;;;;0.10;0.10;;;;;;;16.98;100.00;97886.98;109375;1251;63737;-80
2023/08/07 08:34:49;;;;;;;1.20;0.20;;;;;;;16.93;100.00;97891.87;109661;1251;58964;-79
2023/08/07 08:37:16;;;;;;;0.20;0.20;;;;;;;16.94;100.00;97891.40;109706;1251;58943;-81
2023/08/07 08:39:42;;;;;;;1.90;0.20;;;;;;;17.00;100.00;97893.21;109640;1251;66175;-80
2023/08/07 08:42:12;;;;;;;1.90;0.20;;;;;;;17.08;100.00;97895.40;109689;1251;59846;-79
2023/08/07 08:44:40;;;;;;;1.70;0.20;;;;;;;17.17;100.00;97894.73;109623;1251;64799;-79
2023/08/07 08:47:08;;;;;;;0.50;0.30;;;;;;;17.24;100.00;97895.19;109610;1251;58987;-80
2023/08/07 08:49:43;;;;;;;0.30;0.30;;;;;;;17.34;100.00;97893.23;109628;1251;58839;-80
2023/08/07 08:52:10;;;;;;;0.90;0.20;;;;;;;17.39;100.00;97897.54;109665;1250;65730;-81
2023/08/07 08:54:37;;;;;;;1.70;0.50;;;;;;;17.38;100.00;97896.94;109711;1251;59832;-81
2023/08/07 08:57:04;;;;;;;0.30;0.30;;;;;;;17.33;100.00;97899.08;109589;1251;64098;-80
2023/08/07 08:59:31;;;;;;;0.40;0.40;;;;;;;17.35;100.00;97901.49;109640;1251;58938;-80
2023/08/07 09:01:58;;;;;;;0.30;0.30;;;;;;;17.40;100.00;97900.50;109613;1251;58993;-80
2023/08/07 09:04:25;;;;;;;0.40;0.40;;;;;;;17.45;100.00;97904.93;109675;1251;65698;-80
2023/08/07 09:06:51;;;;;;;1.10;0.30;;;;;;;17.47;100.00;97906.28;109696;1251;61066;-80
2023/08/07 09:09:21;;;;;;;1.40;0.20;;;;;;;17.50;100.00;97907.34;109531;1251;63903;-81
2023/08/07 09:11:48;;;;;;;0.30;0.30;;;;;;;17.62;100.00;97911.10;109609;1251;59006;-80
2023/08/07 09:14:17;;;;;;;0.30;0.20;;;;;;;17.73;100.00;97911.48;109682;1251;59014;-79
2023/08/07 09:16:47;;;;;;;0.70;0.50;;;;;;;17.93;100.00;97915.15;109658;1251;64942;-80
2023/08/07 09:19:14;;;;;;;0.60;0.20;;;;;;;18.16;100.00;97916.73;109623;1251;58948;-83
2023/08/07 09:21:41;;;;;;;0.30;0.30;;;;;;;18.22;100.00;97914.31;109639;1251;62923;-82
2023/08/07 09:24:08;;;;;;;0.40;0.20;;;;;;;18.08;100.00;97921.10;109611;1251;59110;-82
2023/08/07 09:26:35;;;;;;;0.20;0.20;;;;;;;17.91;100.00;97923.98;109605;1251;59020;-80
2023/08/07 09:29:03;;;;;;;1.30;0.30;;;;;;;17.80;100.00;97922.48;109621;1251;64907;-80
2023/08/07 09:31:33;;;;;;;0.50;0.40;;;;;;;17.81;100.00;97923.25;109662;1251;61324;-81
2023/08/07 09:34:04;;;;;;;;;;;;;;;17.89;100.00;97920.83;109637;1251;62816;-81
2023/08/07 09:36:31;;;;;;;0.30;0.30;;;;;;;17.96;100.00;97922.31;109622;1251;59021;-81
2023/08/07 09:39:03;;;;;;;0.30;0.30;;;;;;;18.05;100.00;97923.95;109403;1251;59059;-80
2023/08/07 09:41:30;;;;;;;0.30;0.30;;;;;;;18.11;100.00;97927.30;109590;1250;67272;-80
2023/08/07 09:43:57;;;;;;;0.30;0.30;;;;;;;18.14;100.00;97924.91;109648;1251;59934;-78
2023/08/07 09:46:27;;;;;;;0.40;0.30;;;;;;;18.14;100.00;97929.73;109625;1251;64122;-79
2023/08/07 09:48:58;;;;;;;0.80;0.40;;;;;;;18.13;100.00;97931.52;109439;1251;58969;-80
2023/08/07 09:51:24;;;;;;;0.70;0.60;;;;;;;18.13;100.00;97936.52;109647;1250;58972;-80
2023/08/07 09:53:51;;;;;;;0.40;0.40;;;;;;;18.10;100.00;97936.45;109671;1251;64894;-79
2023/08/07 09:56:17;;;;;;;0.70;0.70;;;;;;;18.07;100.00;97936.38;109631;1251;60153;-78
2023/08/07 09:58:47;;;;;;;0.50;0.50;;;;;;;18.01;100.00;97939.87;109628;1251;65240;-80
2023/08/07 10:01:15;;;;;;;0.40;0.40;;;;;;;17.90;100.00;97939.68;109584;1251;58981;-80
2023/08/07 10:03:43;;;;;;;0.80;0.40;;;;;;;17.85;100.00;97937.27;109586;1251;58818;-80
2023/08/07 10:06:09;;;;;;;0.50;0.30;;;;;;;17.78;100.00;97941.23;109367;1251;65754;-80
2023/08/07 10:08:37;;;;;;;0.90;0.40;;;;;;;17.74;100.00;97944.46;109607;1251;60178;-80
2023/08/07 10:11:05;;;;;;;0.30;0.30;;;;;;;17.72;100.00;97942.02;109627;1251;63858;-79
2023/08/07 10:13:31;;;;;;;0.60;0.30;;;;;;;17.72;100.00;97948.21;109362;1251;59061;-79
2023/08/07 10:15:58;;;;;;;1.00;0.50;;;;;;;17.73;100.00;97950.45;109588;1251;60200;-79
2023/08/07 10:18:25;;;;;;;1.00;0.50;;;;;;;17.75;100.00;97957.02;109648;1251;67239;-79
2023/08/07 10:20:52;;;;;;;0.60;0.50;;;;;;;17.83;100.00;97956.86;109637;1251;60275;-81
2023/08/07 10:23:20;;;;;;;0.50;0.50;;;;;;;17.96;100.00;97956.23;109646;1251;64346;-82
2023/08/07 10:25:49;;;;;;;0.80;0.60;;;;;;;18.07;100.00;97957.90;109617;1251;58941;-80
2023/08/07 10:28:18;;;;;;;0.30;0.30;;;;;;;18.10;100.00;97957.05;109404;1251;59019;-80
2023/08/07 10:30:45;;;;;;;0.40;0.40;;;;;;;18.12;100.00;97956.81;109601;1251;66057;-80
2023/08/07 10:33:13;;;;;;;1.10;0.70;;;;;;;18.20;100.00;97957.81;109597;1251;61090;-77
2023/08/07 10:35:47;;;;;;;0.70;0.70;;;;;;;18.31;100.00;97955.63;109505;1251;63794;-77
2023/08/07 10:38:14;;;;;;;1.20;1.10;;;;;;;18.35;100.00;97958.77;109496;1251;58972;-74
2023/08/07 10:41:06;;;;;;;1.00;0.60;;;;;;;18.34;100.00;97957.87;109611;1251;59295;-73
2023/08/07 10:43:45;;;;;;;0.30;0.30;;;;;;;18.40;100.00;97953.51;109466;1252;64496;-73
2023/08/07 10:46:15;;;;;;;0.60;0.60;;;;;;;18.51;100.00;97956.25;109288;1253;61273;-77
2023/08/07 10:48:47;;;;;;;0.60;0.60;;;;;;;18.66;100.00;97957.20;109353;1253;62641;-72
2023/08/07 10:51:15;;;;;;;0.40;0.40;;;;;;;18.92;100.00;97961.02;109510;1252;58977;-72
2023/08/07 10:53:47;;;;;;;0.70;0.70;;;;;;;19.16;100.00;97961.35;109537;1251;59041;-72
2023/08/07 10:56:29;;;;;;;0.60;0.60;;;;;;;19.31;100.00;97963.40;109448;1250;67150;-71
2023/08/07 10:58:56;;;;;;;0.90;0.40;;;;;;;19.40;100.00;97960.48;109577;1251;60978;-76
2023/08/07 11:01:38;;;;;;;0.50;0.50;;;;;;;19.48;100.00;97963.67;109598;1251;62730;-75
2023/08/07 11:04:13;;;;;;;0.60;0.50;;;;;;;19.58;100.00;97963.95;109583;1251;58937;-75
2023/08/07 11:06:42;;;;;;;0.50;0.50;;;;;;;19.43;100.00;97964.81;109671;1251;59035;-76
2023/08/07 11:09:10;;;;;;;0.60;0.40;;;;;;;19.21;100.00;97966.41;109630;1253;66879;-75
2023/08/07 11:11:42;;;;;;;0.40;0.40;;;;;;;19.10;100.00;97967.02;109609;1251;67726;-76
2023/08/07 11:14:11;;;;;;;1.00;0.60;;;;;;;19.14;100.00;97964.87;109506;1251;64784;-75
2023/08/07 11:16:38;;;;;;;0.80;0.80;;;;;;;19.07;100.00;97964.98;109342;1258;59012;-75
2023/08/07 11:19:05;;;;;;;1.50;1.00;;;;;;;18.86;100.00;97966.23;109276;1254;59055;-76